Time;durP1;ratioP1;P1;durP2;ratioP2;P2;SDS_P1;SDS_P2;PMS_P1;PMS_P2;Temp;Humidity;BMP_temperature;BMP_pressure;BME280_temperature;BME280_humidity;BME280_pressure;Samples;Min_cycle;Max_cycle;Signal;HPM_P1;HPM_P2
2023/08/08 00:01:06;;;;;;;7.40;2.50;;;12.30;1.00;;;;;;5037378;28;20402;-79
2023/08/08 00:04:11;;;;;;;6.93;2.23;;;12.30;1.00;;;;;;5050268;28;20477;-80
2023/08/08 00:07:00;;;;;;;7.97;2.67;;;12.20;1.00;;;;;;5055358;28;20543;-79
2023/08/08 00:16:10;;;;;;;10.07;2.63;;;12.30;1.00;;;;;;5054738;28;20366;-79
2023/08/08 00:21:58;;;;;;;8.10;2.77;;;12.20;1.00;;;;;;5043050;28;20186;-79
2023/08/08 00:25:05;;;;;;;13.93;2.40;;;12.20;1.00;;;;;;5054792;28;20895;-80
2023/08/08 00:28:05;;;;;;;4.27;2.97;;;12.20;1.00;;;;;;5055130;28;20160;-77
2023/08/08 00:30:47;;;;;;;4.63;2.73;;;12.30;1.00;;;;;;5048858;28;20500;-77
2023/08/08 00:36:35;;;;;;;11.70;2.37;;;12.30;1.00;;;;;;5042782;28;20413;-77
2023/08/08 00:42:24;;;;;;;11.40;2.90;;;12.40;1.00;;;;;;5042655;28;20272;-81
2023/08/08 00:44:49;;;;;;;4.77;2.80;;;12.60;1.00;;;;;;5046024;28;20461;-79
2023/08/08 00:47:35;;;;;;;11.43;2.80;;;12.60;1.00;;;;;;5054203;28;20425;-80
2023/08/08 00:50:53;;;;;;;8.63;2.60;;;12.60;1.00;;;;;;5044092;28;20184;-79
2023/08/08 00:53:41;;;;;;;8.70;2.37;;;12.60;1.00;;;;;;5046518;28;20769;-79
2023/08/08 01:02:50;;;;;;;11.47;2.73;;;12.60;1.00;;;;;;5053968;28;20789;-79
2023/08/08 01:12:01;;;;;;;11.77;3.33;;;12.60;1.00;;;;;;5054369;28;20397;-80
2023/08/08 01:15:06;;;;;;;4.40;2.50;;;12.50;1.00;;;;;;5044256;28;20453;-79
2023/08/08 01:20:55;;;;;;;12.73;2.83;;;12.50;1.00;;;;;;5053406;28;21881;-79
2023/08/08 01:23:43;;;;;;;13.53;2.60;;;12.40;1.00;;;;;;5053659;28;20957;-79
2023/08/08 01:26:18;;;;;;;4.70;2.93;;;12.40;1.00;;;;;;5053865;28;20930;-79
2023/08/08 01:45:33;;;;;;;9.50;3.10;;;12.20;1.00;;;;;;5053255;28;21046;-80
2023/08/08 01:47:59;;;;;;;4.50;2.93;;;12.20;1.00;;;;;;5041858;28;20443;-80
2023/08/08 01:53:47;;;;;;;3.70;2.60;;;12.10;1.00;;;;;;5040268;28;20248;-79
2023/08/08 01:59:34;;;;;;;6.13;2.77;;;12.00;1.00;;;;;;5033292;28;20259;-77
2023/08/08 02:05:22;;;;;;;11.93;3.37;;;11.90;1.00;;;;;;5046464;28;20294;-77
2023/08/08 02:11:09;;;;;;;11.00;2.57;;;11.70;1.00;;;;;;5043076;28;20194;-77
2023/08/08 02:13:36;;;;;;;13.00;3.03;;;11.70;1.00;;;;;;5046075;28;20418;-79
2023/08/08 02:16:02;;;;;;;9.90;3.30;;;11.60;1.00;;;;;;5043009;28;20194;-79
2023/08/08 02:18:27;;;;;;;3.27;2.83;;;11.60;1.00;;;;;;5034175;28;20792;-79
2023/08/08 02:20:53;;;;;;;3.27;2.97;;;11.50;1.00;;;;;;5053275;28;20168;-80
2023/08/08 02:23:23;;;;;;;4.30;3.03;;;11.50;1.00;;;;;;5050936;28;20600;-79
2023/08/08 02:26:17;;;;;;;5.70;3.27;;;11.40;1.00;;;;;;5044890;28;20896;-80
2023/08/08 02:32:05;;;;;;;9.43;3.47;;;11.30;1.00;;;;;;5045430;28;20428;-79
2023/08/08 02:44:36;;;;;;;7.20;3.97;;;11.10;1.00;;;;;;5055150;28;20851;-77
2023/08/08 02:47:11;;;;;;;4.73;3.80;;;11.00;1.00;;;;;;5048385;28;20438;-77
2023/08/08 02:49:59;;;;;;;5.17;3.20;;;11.00;1.00;;;;;;5042166;28;20657;-77
2023/08/08 02:52:35;;;;;;;8.60;3.10;;;11.00;1.00;;;;;;5055981;28;20432;-77
2023/08/08 02:55:35;;;;;;;4.80;3.50;;;11.30;1.00;;;;;;5036728;28;20403;-77
2023/08/08 03:08:07;;;;;;;14.50;4.10;;;10.80;1.00;;;;;;5036202;28;20932;-79
2023/08/08 03:10:32;;;;;;;8.60;3.90;;;10.80;1.00;;;;;;5041660;28;20454;-79
2023/08/08 03:16:29;;;;;;;12.00;3.33;;;10.80;1.00;;;;;;5036269;28;20186;-81
2023/08/08 03:22:47;;;;;;;7.23;3.93;;;10.80;1.00;;;;;;5044747;28;20775;-81
2023/08/08 03:25:47;;;;;;;17.30;4.50;;;10.70;1.00;;;;;;5048643;28;20427;-81
2023/08/08 03:28:13;;;;;;;12.30;4.33;;;10.70;1.00;;;;;;5035201;28;20400;-81
2023/08/08 03:44:06;;;;;;;18.93;4.23;;;10.50;1.00;;;;;;5037645;28;20453;-79
2023/08/08 03:46:41;;;;;;;10.73;5.40;;;10.50;1.00;;;;;;5055685;28;20484;-79
2023/08/08 03:49:07;;;;;;;11.23;3.90;;;10.40;1.00;;;;;;5053658;28;20185;-79
2023/08/08 03:51:33;;;;;;;6.80;3.67;;;10.50;1.00;;;;;;5052655;28;20416;-79
2023/08/08 03:53:59;;;;;;;6.17;3.80;;;10.40;1.00;;;;;;5043025;28;20426;-79
2023/08/08 03:56:25;;;;;;;11.10;3.83;;;10.50;1.00;;;;;;5037865;28;20183;-79
2023/08/08 03:58:50;;;;;;;26.73;4.30;;;10.50;1.00;;;;;;5050036;28;20229;-79
2023/08/08 04:01:16;;;;;;;4.93;3.27;;;10.50;1.00;;;;;;5051849;28;20187;-79
2023/08/08 04:03:42;;;;;;;12.80;3.57;;;10.60;1.00;;;;;;5049090;28;20701;-79
2023/08/08 04:06:07;;;;;;;5.60;3.57;;;10.60;1.00;;;;;;5049284;28;20183;-79
2023/08/08 04:08:33;;;;;;;10.13;3.67;;;10.60;1.00;;;;;;5066984;28;20191;-78
2023/08/08 04:10:58;;;;;;;6.50;3.90;;;10.60;1.00;;;;;;5053778;28;20286;-79
2023/08/08 04:16:47;;;;;;;6.37;3.40;;;10.50;1.00;;;;;;5043334;28;20189;-81
2023/08/08 04:22:35;;;;;;;7.90;3.90;;;10.50;1.00;;;;;;5038822;28;20399;-81
2023/08/08 04:25:35;;;;;;;4.20;3.63;;;10.60;1.00;;;;;;5043201;28;20470;-81
2023/08/08 04:31:25;;;;;;;26.03;4.33;;;10.70;1.00;;;;;;5035151;28;20372;-81
2023/08/08 04:37:12;;;;;;;8.97;4.20;;;10.80;1.00;;;;;;5054763;28;20471;-81
2023/08/08 04:39:38;;;;;;;8.43;4.00;;;10.80;1.00;;;;;;5053074;28;20870;-81
2023/08/08 04:42:04;;;;;;;24.23;4.37;;;10.90;1.00;;;;;;5040130;28;20176;-81
2023/08/08 04:44:30;;;;;;;6.50;3.87;;;10.80;1.00;;;;;;5042332;28;20208;-81
2023/08/08 04:46:56;;;;;;;8.77;3.50;;;10.80;1.00;;;;;;5036903;28;20430;-81
2023/08/08 04:49:21;;;;;;;20.83;3.70;;;10.90;1.00;;;;;;5045229;28;20262;-81
2023/08/08 04:55:09;;;;;;;7.87;4.17;;;10.90;2.70;;;;;;5053552;28;20198;-81
2023/08/08 05:01:35;;;;;;;11.57;3.80;;;11.00;1.00;;;;;;5054554;28;20193;-79
2023/08/08 05:04:11;;;;;;;22.80;6.90;;;11.00;1.00;;;;;;5033164;28;20548;-79
2023/08/08 05:07:01;;;;;;;8.47;4.33;;;11.10;1.00;;;;;;5050570;28;20452;-79
2023/08/08 05:09:26;;;;;;;10.10;3.57;;;11.10;1.00;;;;;;5041836;28;20418;-79
2023/08/08 05:15:14;;;;;;;6.33;3.50;;;11.20;1.00;;;;;;5054481;28;20189;-82
2023/08/08 05:21:02;;;;;;;5.40;3.20;;;;;;;;;;5053633;28;20321;-81
2023/08/08 05:23:27;;;;;;;7.43;3.53;;;11.40;1.00;;;;;;5054021;28;21032;-82
2023/08/08 05:26:35;;;;;;;9.40;3.07;;;11.40;1.00;;;;;;5053944;28;20524;-81
2023/08/08 05:32:22;;;;;;;4.77;3.13;;;11.60;2.70;;;;;;5048556;28;20413;-80
2023/08/08 05:35:35;;;;;;;4.77;3.63;;;11.60;4.20;;;;;;5048244;28;20438;-80
2023/08/08 05:41:47;;;;;;;3.77;3.43;;;11.70;6.00;;;;;;5044758;28;20477;-80
2023/08/08 05:48:29;;;;;;;5.10;3.20;;;12.00;8.30;;;;;;5053438;28;20445;-82
2023/08/08 05:54:16;;;;;;;3.23;3.00;;;12.20;12.50;;;;;;5053989;28;20393;-84
2023/08/08 05:56:54;;;;;;;5.60;3.00;;;12.40;10.70;;;;;;5036137;28;20502;-84
2023/08/08 05:59:20;;;;;;;13.70;5.37;;;12.60;3.40;;;;;;5045366;28;20179;-84
2023/08/08 06:05:41;;;;;;;9.07;2.80;;;12.80;1.00;;;;;;5052721;28;20560;-83
2023/08/08 06:08:11;;;;;;;7.40;2.23;;;;;;;;;;5051599;28;20440;-83
2023/08/08 06:10:37;;;;;;;11.27;2.40;;;13.00;1.00;;;;;;5036701;28;20443;-83
2023/08/08 06:16:24;;;;;;;2.63;2.20;;;13.20;1.00;;;;;;5045446;28;20238;-84
2023/08/08 06:19:35;;;;;;;3.03;2.13;;;13.40;1.00;;;;;;5052498;28;20433;-87
2023/08/08 06:25:22;;;;;;;3.63;1.20;;;13.60;1.00;;;;;;5037977;28;20381;-84
2023/08/08 06:27:54;;;;;;;2.77;1.87;;;13.70;1.00;;;;;;5037234;28;20401;-84
2023/08/08 06:33:41;;;;;;;3.43;2.03;;;14.00;1.00;;;;;;5061559;28;20455;-83
2023/08/08 06:36:35;;;;;;;2.10;2.00;;;14.00;1.00;;;;;;5055801;28;20426;-84
2023/08/08 06:39:53;;;;;;;7.60;1.73;;;14.10;1.00;;;;;;5062635;28;20190;-84
2023/08/08 06:43:05;;;;;;;5.87;1.57;;;14.30;1.00;;;;;;5055809;28;20440;-84
2023/08/08 06:58:58;;;;;;;3.20;1.40;;;14.90;1.00;;;;;;5052604;28;20474;-79
2023/08/08 07:01:47;;;;;;;5.00;1.70;;;15.00;1.00;;;;;;5047910;28;20460;-78
2023/08/08 07:04:41;;;;;;;1.50;1.40;;;15.10;1.00;;;;;;5042020;28;20199;-78
2023/08/08 07:07:07;;;;;;;1.47;1.30;;;15.20;1.00;;;;;;5048457;28;20406;-79
2023/08/08 07:09:32;;;;;;;5.30;2.17;;;15.50;1.00;;;;;;5047357;28;20533;-80
2023/08/08 07:11:58;;;;;;;3.07;1.97;;;15.60;1.00;;;;;;5053369;28;20206;-77
2023/08/08 07:14:24;;;;;;;6.60;1.40;;;15.80;1.00;;;;;;5055000;28;20393;-77
2023/08/08 07:16:50;;;;;;;4.00;1.90;;;15.90;1.00;;;;;;5052618;28;20189;-77
2023/08/08 07:19:18;;;;;;;5.30;1.40;;;15.90;1.00;;;;;;5041927;28;20210;-77
2023/08/08 07:21:44;;;;;;;1.73;1.20;;;16.10;1.00;;;;;;5055678;28;20655;-76
2023/08/08 07:25:05;;;;;;;3.90;1.40;;;16.20;1.00;;;;;;5047463;28;20435;-77
2023/08/08 07:31:17;;;;;;;1.50;1.13;;;16.40;1.00;;;;;;5041858;28;20962;-76
2023/08/08 07:37:35;;;;;;;2.83;1.23;;;16.50;1.00;;;;;;5055402;28;20431;-76
2023/08/08 07:40:02;;;;;;;4.40;1.67;;;16.80;1.00;;;;;;5049071;28;20512;-76
2023/08/08 07:42:59;;;;;;;1.40;1.30;;;16.80;1.00;;;;;;5052932;28;20539;-77
2023/08/08 07:45:25;;;;;;;2.00;1.50;;;17.00;1.00;;;;;;5054586;28;20440;-76
2023/08/08 07:51:12;;;;;;;2.00;1.40;;;17.30;1.00;;;;;;5055207;28;20236;-83
2023/08/08 08:00:41;;;;;;;2.30;1.33;;;18.00;1.00;;;;;;5054172;28;20467;-82
2023/08/08 08:03:29;;;;;;;2.37;1.40;;;18.30;1.00;;;;;;5050568;28;20513;-83
2023/08/08 08:09:17;;;;;;;3.93;1.50;;;18.40;1.00;;;;;;5050850;28;20482;-89
2023/08/08 08:18:47;;;;;;;3.07;1.07;;;19.00;1.00;;;;;;5047073;28;20394;-80
2023/08/08 08:25:07;;;;;;;3.73;1.27;;;19.40;1.00;;;;;;5045538;28;20463;-80
2023/08/08 08:30:55;;;;;;;7.40;1.73;;;19.60;1.00;;;;;;5054599;28;20366;-81
2023/08/08 08:36:42;;;;;;;2.40;1.30;;;20.00;1.00;;;;;;5055411;28;20230;-88
2023/08/08 08:45:53;;;;;;;5.40;1.30;;;20.40;1.00;;;;;;5049598;28;20463;-87
2023/08/08 08:49:11;;;;;;;5.40;1.40;;;20.30;1.00;;;;;;5041336;28;20435;-80
2023/08/08 08:51:42;;;;;;;4.40;1.23;;;20.40;1.00;;;;;;5047472;28;20442;-80
2023/08/08 08:57:44;;;;;;;3.43;0.97;;;20.60;1.00;;;;;;5041586;28;20910;-79
2023/08/08 09:07:02;;;;;;;5.10;1.43;;;20.80;1.00;;;;;;5047285;28;20403;-80
2023/08/08 09:12:50;;;;;;;1.70;1.10;;;20.90;1.00;;;;;;5043379;28;20423;-80
2023/08/08 09:22:26;;;;;;;3.00;0.90;;;20.50;1.00;;;;;;5045958;28;20461;-79
2023/08/08 09:28:35;;;;;;;1.60;1.00;;;20.50;1.00;;;;;;5050691;28;20405;-80
2023/08/08 09:34:26;;;;;;;3.03;0.90;;;20.70;1.00;;;;;;5052157;28;20417;-87
2023/08/08 09:36:53;;;;;;;3.33;1.10;;;20.70;1.00;;;;;;5070105;28;20415;-87
2023/08/08 09:40:11;;;;;;;1.60;0.97;;;21.10;1.00;;;;;;5055721;28;20439;-85
2023/08/08 09:49:22;;;;;;;1.93;1.20;;;21.40;1.00;;;;;;5047881;28;20418;-86
2023/08/08 09:51:51;;;;;;;5.03;1.60;;;21.50;1.00;;;;;;5037559;28;20535;-87
2023/08/08 09:54:17;;;;;;;3.03;1.50;;;21.60;1.00;;;;;;5045961;28;20422;-87
2023/08/08 09:57:17;;;;;;;1.23;1.10;;;21.60;1.00;;;;;;5047335;28;21031;-88
2023/08/08 10:03:06;;;;;;;4.00;1.00;;;21.40;1.00;;;;;;5053178;28;20442;-87
2023/08/08 10:06:23;;;;;;;2.93;1.30;;;21.20;1.00;;;;;;5042726;28;20490;-87
2023/08/08 10:12:38;;;;;;;3.73;1.30;;;21.10;1.00;;;;;;5041658;28;20527;-88
2023/08/08 10:18:27;;;;;;;1.20;0.97;;;21.50;1.00;;;;;;5034140;28;20429;-85
2023/08/08 10:24:36;;;;;;;2.73;1.60;;;21.80;1.00;;;;;;5053596;28;20832;-88
2023/08/08 10:27:36;;;;;;;3.13;1.27;;;21.50;1.00;;;;;;5041302;28;20477;-87
2023/08/08 10:33:41;;;;;;;2.30;1.20;;;21.80;1.00;;;;;;5053799;28;20826;-81
2023/08/08 10:36:59;;;;;;;4.03;1.10;;;21.70;1.00;;;;;;5035907;28;20485;-83
2023/08/08 10:39:35;;;;;;;1.20;1.10;;;21.90;1.00;;;;;;5052824;28;20419;-81
2023/08/08 10:42:53;;;;;;;4.57;1.60;;;21.80;1.00;;;;;;5039651;28;20563;-82
2023/08/08 10:48:56;;;;;;;8.30;2.13;;;22.00;1.00;;;;;;5039697;28;20417;-87
2023/08/08 10:52:02;;;;;;;2.63;1.17;;;22.00;1.00;;;;;;5052330;28;20496;-88
2023/08/08 10:58:12;;;;;;;5.53;1.70;;;22.10;1.00;;;;;;5047835;28;20423;-88
2023/08/08 11:00:54;;;;;;;3.07;1.37;;;22.20;1.00;;;;;;5065683;28;20510;-87
2023/08/08 11:03:59;;;;;;;4.67;1.40;;;22.10;1.00;;;;;;5032603;28;20821;-78
2023/08/08 11:07:01;;;;;;;4.67;1.20;;;22.20;1.00;;;;;;5055637;28;20486;-79
2023/08/08 11:09:48;;;;;;;2.90;1.50;;;22.00;1.00;;;;;;5045153;28;20440;-80
2023/08/08 11:12:17;;;;;;;21.43;2.47;;;22.20;1.00;;;;;;5041756;28;20525;-78
2023/08/08 11:14:43;;;;;;;3.40;1.43;;;22.20;1.00;;;;;;5056029;28;20466;-79
2023/08/08 11:21:17;;;;;;;3.10;1.30;;;22.20;1.00;;;;;;5053703;28;20186;-78
2023/08/08 11:23:59;;;;;;;1.70;1.30;;;22.30;1.00;;;;;;5047510;28;20458;-77
2023/08/08 11:26:31;;;;;;;3.90;1.43;;;22.80;1.00;;;;;;5055485;28;20419;-78
2023/08/08 11:29:53;;;;;;;10.97;2.03;;;22.90;1.00;;;;;;5044654;28;20419;-78
2023/08/08 11:32:19;;;;;;;4.83;1.53;;;23.10;1.00;;;;;;5054358;28;20431;-80
2023/08/08 11:35:18;;;;;;;4.93;1.10;;;22.80;1.00;;;;;;5049720;28;20442;-88
2023/08/08 11:38:17;;;;;;;3.73;1.50;;;22.80;1.00;;;;;;5040641;28;20580;-88
2023/08/08 11:44:08;;;;;;;5.43;1.50;;;23.20;1.00;;;;;;5055515;28;20466;-88
2023/08/08 11:46:34;;;;;;;2.70;1.40;;;23.30;1.00;;;;;;5054629;28;20455;-88
2023/08/08 11:49:47;;;;;;;1.70;1.60;;;23.60;1.00;;;;;;5049669;28;20527;-78
2023/08/08 11:52:40;;;;;;;3.80;1.40;;;23.60;1.00;;;;;;5055180;28;20506;-79
2023/08/08 11:55:47;;;;;;;3.07;1.27;;;23.00;1.00;;;;;;5051525;28;20959;-79
2023/08/08 11:58:41;;;;;;;3.57;1.33;;;23.00;1.00;;;;;;5051959;28;20443;-80
2023/08/08 12:01:47;;;;;;;2.63;1.37;;;23.10;1.00;;;;;;5054568;28;20435;-80
2023/08/08 12:04:13;;;;;;;5.67;1.20;;;23.20;1.00;;;;;;5047560;28;20551;-80
2023/08/08 12:06:47;;;;;;;2.07;1.17;;;23.20;1.00;;;;;;5055274;28;20503;-80
2023/08/08 12:09:47;;;;;;;2.27;1.10;;;23.30;1.00;;;;;;5053417;28;20288;-79
2023/08/08 12:12:34;;;;;;;5.03;1.30;;;23.50;1.00;;;;;;5052552;28;20459;-80
2023/08/08 12:21:47;;;;;;;2.17;1.50;;;23.60;1.00;;;;;;5047747;28;20445;-79
2023/08/08 12:24:18;;;;;;;3.37;1.10;;;23.40;1.00;;;;;;5054896;28;21038;-79
2023/08/08 12:26:44;;;;;;;4.17;1.63;;;23.50;1.00;;;;;;5052887;28;20438;-79
2023/08/08 12:29:10;;;;;;;1.43;1.30;;;23.40;1.00;;;;;;5053707;28;20900;-80
2023/08/08 12:31:35;;;;;;;2.50;1.20;;;23.70;1.00;;;;;;5050209;28;20557;-79
2023/08/08 12:34:01;;;;;;;1.93;1.00;;;23.70;1.00;;;;;;5050080;28;20181;-79
2023/08/08 12:36:27;;;;;;;3.03;1.40;;;23.50;1.00;;;;;;5049994;28;20196;-79
2023/08/08 12:38:59;;;;;;;5.10;1.30;;;23.50;1.00;;;;;;5050317;28;20194;-79
2023/08/08 12:44:51;;;;;;;4.00;1.10;;;23.80;1.00;;;;;;5047485;28;20463;-80
2023/08/08 12:47:19;;;;;;;4.50;1.20;;;24.00;1.00;;;;;;5037985;28;20427;-80
2023/08/08 12:50:19;;;;;;;2.00;1.20;;;24.20;1.00;;;;;;5044300;28;20433;-80
2023/08/08 12:53:05;;;;;;;2.07;1.30;;;24.50;1.00;;;;;;5043928;28;20431;-79
2023/08/08 12:55:48;;;;;;;2.33;1.17;;;;;;;;;;5043613;28;20463;-80
2023/08/08 12:58:47;;;;;;;6.57;1.23;;;24.40;1.00;;;;;;5054293;28;20894;-79
2023/08/08 13:01:35;;;;;;;3.77;1.33;;;24.40;1.00;;;;;;5051292;28;20963;-79
2023/08/08 13:04:47;;;;;;;1.90;1.13;;;24.30;1.00;;;;;;5049876;28;21057;-79
2023/08/08 13:07:13;;;;;;;2.10;1.20;;;24.20;1.00;;;;;;5034016;28;20395;-78
2023/08/08 13:09:47;;;;;;;4.17;1.30;;;24.20;1.00;;;;;;5051733;28;20440;-78
2023/08/08 13:12:47;;;;;;;1.00;0.90;;;23.80;1.00;;;;;;5049220;28;20637;-78
2023/08/08 13:15:24;;;;;;;5.40;1.20;;;23.80;1.00;;;;;;5048314;28;20432;-78
2023/08/08 13:18:06;;;;;;;2.60;1.17;;;24.00;1.00;;;;;;5045971;28;20445;-76
2023/08/08 13:21:23;;;;;;;2.00;1.10;;;23.90;1.00;;;;;;5047672;28;20428;-78
2023/08/08 13:27:11;;;;;;;2.60;1.53;;;24.20;1.00;;;;;;5044199;28;20480;-79
2023/08/08 13:29:48;;;;;;;6.27;1.50;;;24.50;1.00;;;;;;5043328;28;20993;-79
2023/08/08 13:32:47;;;;;;;3.57;1.00;;;24.20;1.00;;;;;;5036472;28;20414;-80
2023/08/08 13:35:17;;;;;;;2.40;1.40;;;23.80;1.00;;;;;;5044230;28;20427;-80
2023/08/08 13:38:17;;;;;;;1.63;1.10;;;23.90;1.00;;;;;;5047569;28;20412;-76
2023/08/08 13:40:43;;;;;;;1.73;1.10;;;23.90;1.00;;;;;;5042997;28;20440;-74
2023/08/08 13:43:09;;;;;;;2.30;1.20;;;24.10;1.00;;;;;;5047067;28;20470;-74
2023/08/08 13:45:36;;;;;;;3.67;1.50;;;23.80;1.00;;;;;;5047425;28;20856;-75
2023/08/08 13:48:02;;;;;;;3.43;1.40;;;23.70;1.00;;;;;;5053546;28;20209;-75
2023/08/08 13:50:35;;;;;;;1.70;0.97;;;23.20;1.00;;;;;;5053675;28;20470;-81
2023/08/08 13:53:05;;;;;;;3.00;1.10;;;23.10;1.00;;;;;;5051575;28;20451;-82
2023/08/08 13:55:39;;;;;;;3.83;1.30;;;23.00;1.00;;;;;;5052854;28;20875;-81
2023/08/08 13:58:06;;;;;;;1.57;1.00;;;22.90;1.00;;;;;;5046106;28;20438;-81
2023/08/08 14:01:17;;;;;;;2.10;1.40;;;22.80;1.00;;;;;;5055179;28;20482;-80
2023/08/08 14:03:53;;;;;;;2.00;1.23;;;22.70;1.00;;;;;;5047293;28;20504;-80
2023/08/08 14:06:30;;;;;;;1.50;1.00;;;23.10;1.00;;;;;;5052615;28;20435;-76
2023/08/08 14:08:59;;;;;;;2.90;1.17;;;23.10;1.00;;;;;;5039739;28;20842;-75
2023/08/08 14:11:47;;;;;;;2.67;1.20;;;23.30;1.00;;;;;;5051459;28;20919;-75
2023/08/08 14:14:13;;;;;;;4.67;1.23;;;23.10;1.00;;;;;;5041092;28;20511;-75
2023/08/08 14:16:39;;;;;;;3.93;1.00;;;23.00;1.00;;;;;;5052958;28;20518;-74
2023/08/08 14:19:47;;;;;;;2.20;1.27;;;23.00;1.00;;;;;;5053353;28;20209;-81
2023/08/08 14:22:17;;;;;;;1.17;1.07;;;23.10;1.00;;;;;;5053031;28;20185;-83
2023/08/08 14:24:48;;;;;;;2.73;0.90;;;22.90;1.00;;;;;;5052545;28;20961;-84
2023/08/08 14:27:13;;;;;;;3.67;1.53;;;23.00;1.00;;;;;;5051094;28;20430;-81
2023/08/08 14:29:41;;;;;;;2.70;1.00;;;23.20;1.00;;;;;;5049508;28;20424;-81
2023/08/08 14:32:19;;;;;;;3.63;1.27;;;23.30;1.00;;;;;;5051629;28;20175;-81
2023/08/08 14:35:05;;;;;;;1.17;0.83;;;23.30;1.00;;;;;;5051015;28;20435;-80
2023/08/08 14:37:47;;;;;;;2.37;1.13;;;23.30;1.00;;;;;;5052396;28;20513;-75
2023/08/08 14:40:13;;;;;;;1.30;1.20;;;23.20;1.00;;;;;;5038274;28;20439;-75
2023/08/08 14:42:47;;;;;;;1.37;0.90;;;23.30;1.00;;;;;;5055770;28;20418;-75
2023/08/08 14:45:18;;;;;;;1.27;0.90;;;23.00;1.00;;;;;;5055160;28;20205;-75
2023/08/08 14:47:48;;;;;;;3.80;1.10;;;22.80;1.00;;;;;;5043541;28;20430;-75
2023/08/08 14:50:18;;;;;;;2.10;1.03;;;22.70;1.00;;;;;;5057007;28;20538;-76
2023/08/08 14:52:44;;;;;;;2.77;1.00;;;22.70;1.00;;;;;;5057344;28;20459;-75
2023/08/08 14:55:18;;;;;;;0.90;0.90;;;22.40;1.00;;;;;;5043491;28;20895;-75
2023/08/08 14:57:47;;;;;;;3.43;1.60;;;22.10;1.00;;;;;;5054898;28;20961;-75
2023/08/08 15:00:18;;;;;;;4.47;1.07;;;21.80;1.00;;;;;;5039278;28;20442;-75
2023/08/08 15:02:43;;;;;;;1.20;1.00;;;21.60;1.00;;;;;;5056136;28;20436;-75
2023/08/08 15:05:10;;;;;;;2.03;1.20;;;21.40;1.00;;;;;;5048735;28;20464;-75
2023/08/08 15:07:35;;;;;;;5.30;1.33;;;21.40;1.00;;;;;;5038216;28;20198;-80
2023/08/08 15:10:01;;;;;;;2.80;1.20;;;21.20;1.00;;;;;;5050193;28;20429;-81
2023/08/08 15:12:27;;;;;;;1.83;1.00;;;21.20;1.00;;;;;;5055509;28;20178;-81
2023/08/08 15:14:59;;;;;;;3.10;1.23;;;21.30;1.00;;;;;;5045879;28;20183;-81
2023/08/08 15:17:47;;;;;;;1.57;1.10;;;21.40;1.00;;;;;;5054755;28;20190;-80
2023/08/08 15:20:47;;;;;;;2.30;1.20;;;21.50;1.00;;;;;;5055354;28;20428;-81
2023/08/08 15:23:17;;;;;;;4.17;1.00;;;21.30;1.00;;;;;;5056164;28;20397;-75
2023/08/08 15:25:48;;;;;;;4.30;1.00;;;21.20;1.00;;;;;;5056161;28;20412;-75
2023/08/08 15:28:17;;;;;;;2.93;1.10;;;21.30;1.00;;;;;;5056231;28;20888;-75
2023/08/08 15:30:48;;;;;;;3.23;1.20;;;21.30;1.00;;;;;;5056136;28;20462;-75
2023/08/08 15:33:30;;;;;;;1.57;1.07;;;21.30;1.00;;;;;;5036144;28;20428;-75
2023/08/08 15:39:20;;;;;;;3.43;1.00;;;21.30;1.00;;;;;;5049605;28;20427;-80
2023/08/08 15:51:56;;;;;;;2.17;1.13;;;21.00;1.00;;;;;;5055248;28;20446;-75
2023/08/08 15:54:47;;;;;;;3.10;1.00;;;21.10;1.00;;;;;;5055721;28;20443;-75
2023/08/08 15:57:24;;;;;;;3.83;1.17;;;21.20;1.00;;;;;;5048017;28;20480;-75
2023/08/08 15:59:53;;;;;;;2.30;1.00;;;21.20;1.00;;;;;;5051151;28;20422;-75
2023/08/08 16:03:11;;;;;;;2.03;1.10;;;21.40;1.00;;;;;;5055973;28;20395;-75
2023/08/08 16:06:00;;;;;;;5.33;0.90;;;21.60;1.00;;;;;;5055356;28;20473;-75
2023/08/08 16:12:06;;;;;;;59.80;9.50;;;24.20;1.00;;;;;;5043179;28;20472;-83
2023/08/08 16:15:11;;;;;;;3.17;1.30;;;24.10;1.00;;;;;;5051362;28;20429;-82
2023/08/08 16:21:00;;;;;;;3.43;1.20;;;23.30;1.00;;;;;;5050849;28;20417;-82
2023/08/08 16:23:25;;;;;;;2.90;1.37;;;23.10;1.00;;;;;;5054716;28;20428;-87
2023/08/08 16:26:47;;;;;;;6.03;1.30;;;22.90;1.00;;;;;;5047030;28;20455;-85
2023/08/08 16:32:53;;;;;;;1.67;1.10;;;22.40;1.00;;;;;;5049037;28;20449;-86
2023/08/08 16:42:41;;;;;;;5.40;1.50;;;22.20;1.00;;;;;;5052535;28;20385;-80
2023/08/08 16:48:29;;;;;;;3.73;1.40;;;22.30;1.00;;;;;;5052775;28;20468;-80
2023/08/08 16:51:47;;;;;;;6.47;1.60;;;22.10;1.00;;;;;;5043246;28;20994;-80
2023/08/08 16:57:53;;;;;;;2.80;1.27;;;21.80;1.00;;;;;;5045675;28;20415;-80
2023/08/08 17:00:24;;;;;;;3.13;1.47;;;21.50;1.00;;;;;;5053123;28;20429;-80
2023/08/08 17:02:50;;;;;;;2.93;1.50;;;21.40;1.00;;;;;;5052127;28;20413;-81
2023/08/08 17:08:37;;;;;;;4.77;1.40;;;21.30;1.00;;;;;;5048084;28;20204;-88
2023/08/08 17:14:47;;;;;;;4.63;1.90;;;21.20;1.00;;;;;;5049742;28;20705;-90
2023/08/08 17:17:19;;;;;;;5.90;1.60;;;21.50;1.00;;;;;;5056096;28;20425;-87
2023/08/08 17:26:30;;;;;;;3.87;1.43;;;21.70;1.00;;;;;;5042997;28;20487;-80
2023/08/08 17:29:29;;;;;;;5.13;1.70;;;21.50;1.00;;;;;;5040117;28;20426;-81
2023/08/08 17:32:13;;;;;;;2.33;1.60;;;21.50;1.00;;;;;;5035617;28;20425;-81
2023/08/08 17:35:29;;;;;;;4.23;1.77;;;21.20;1.00;;;;;;5044064;28;20429;-81
2023/08/08 17:38:12;;;;;;;4.77;1.80;;;21.20;1.00;;;;;;5042676;28;20433;-85
2023/08/08 17:40:37;;;;;;;7.13;2.00;;;21.10;1.00;;;;;;5037270;28;20422;-90
2023/08/08 17:43:04;;;;;;;4.63;1.67;;;20.90;1.00;;;;;;5040599;28;20429;-85
2023/08/08 17:45:30;;;;;;;2.50;1.40;;;20.80;1.00;;;;;;5065016;28;20617;-86
2023/08/08 17:48:30;;;;;;;5.40;1.10;;;20.70;1.00;;;;;;5040259;28;20443;-87
2023/08/08 17:50:56;;;;;;;2.20;1.03;;;20.70;1.00;;;;;;5044411;28;20179;-87
2023/08/08 17:53:32;;;;;;;6.20;2.03;;;20.40;1.00;;;;;;5049939;28;20439;-85
2023/08/08 17:56:12;;;;;;;1.90;1.43;;;20.40;1.00;;;;;;5052635;28;20525;-85
2023/08/08 17:59:23;;;;;;;6.73;2.00;;;20.40;1.00;;;;;;5041982;28;20434;-84
2023/08/08 18:02:17;;;;;;;6.70;2.20;;;20.40;1.00;;;;;;5046095;28;20434;-85
2023/08/08 18:05:00;;;;;;;2.83;1.40;;;20.20;1.00;;;;;;5051312;28;20436;-86
2023/08/08 18:07:25;;;;;;;5.80;1.90;;;20.20;1.00;;;;;;5041867;28;20432;-84
2023/08/08 18:10:00;;;;;;;4.70;1.93;;;;;;;;;;5047504;28;21002;-90
2023/08/08 18:15:49;;;;;;;4.77;1.77;;;20.20;1.00;;;;;;5050770;28;20469;-82
2023/08/08 18:21:36;;;;;;;4.83;1.60;;;20.00;1.00;;;;;;5050788;28;20933;-85
2023/08/08 18:30:45;;;;;;;11.43;1.83;;;20.00;1.00;;;;;;5055285;28;20486;-81
2023/08/08 18:33:18;;;;;;;5.73;1.60;;;20.00;1.00;;;;;;5057252;28;20478;-82
2023/08/08 18:39:18;;;;;;;2.73;1.43;;;;;;;;;;5055237;28;20414;-82
2023/08/08 18:41:48;;;;;;;5.17;1.20;;;19.80;1.00;;;;;;5054501;28;20933;-82
2023/08/08 18:44:42;;;;;;;3.23;1.50;;;19.80;1.00;;;;;;5035739;28;20852;-81
2023/08/08 18:50:30;;;;;;;2.20;1.60;;;19.70;1.00;;;;;;5056124;28;20950;-82
2023/08/08 18:59:39;;;;;;;5.60;1.90;;;;;;;;;;5043518;28;20914;-82
2023/08/08 19:02:53;;;;;;;2.17;1.30;;;19.50;1.00;;;;;;5053067;28;20567;-82
2023/08/08 19:05:19;;;;;;;1.80;1.70;;;;;;;;;;5056088;28;20523;-81
2023/08/08 19:07:46;;;;;;;2.10;1.40;;;19.40;1.00;;;;;;5056361;28;20438;-81
2023/08/08 19:10:12;;;;;;;4.27;1.60;;;19.40;1.00;;;;;;5055914;28;20444;-85
2023/08/08 19:15:59;;;;;;;4.73;1.80;;;19.30;1.00;;;;;;5051616;28;20187;-85
2023/08/08 19:19:05;;;;;;;5.73;2.00;;;19.20;1.00;;;;;;5050573;28;20432;-85
2023/08/08 19:22:17;;;;;;;5.13;2.07;;;19.20;1.00;;;;;;5054419;28;20235;-85
2023/08/08 19:28:41;;;;;;;8.10;1.83;;;19.10;1.00;;;;;;5055764;28;20426;-79
2023/08/08 19:37:51;;;;;;;4.10;1.60;;;18.80;1.00;;;;;;5055972;28;20374;-78
2023/08/08 19:41:06;;;;;;;4.57;2.03;;;18.70;1.00;;;;;;5051966;28;20414;-79
2023/08/08 19:43:41;;;;;;;1.90;1.60;;;18.70;1.00;;;;;;5040084;28;20637;-81
2023/08/08 19:49:29;;;;;;;7.77;3.40;;;18.60;1.00;;;;;;5054857;28;20830;-81
2023/08/08 19:52:36;;;;;;;8.00;2.40;;;18.50;1.00;;;;;;5050422;28;20460;-81
2023/08/08 19:58:27;;;;;;;6.17;2.20;;;18.40;1.00;;;;;;5054391;28;20416;-81
2023/08/08 20:01:24;;;;;;;3.70;1.90;;;18.30;1.00;;;;;;5052757;28;20969;-81
2023/08/08 20:07:12;;;;;;;7.70;1.77;;;18.20;1.00;;;;;;5054537;28;20926;-81
2023/08/08 20:09:54;;;;;;;7.57;2.67;;;18.10;1.00;;;;;;5062063;28;20428;-81
2023/08/08 20:15:41;;;;;;;12.30;2.13;;;18.20;1.00;;;;;;5044956;28;20442;-79
2023/08/08 20:18:07;;;;;;;6.73;2.47;;;18.20;1.00;;;;;;5048037;28;20465;-79
2023/08/08 20:20:33;;;;;;;7.63;2.30;;;18.10;1.00;;;;;;5048748;28;20183;-79
2023/08/08 20:23:00;;;;;;;4.87;2.20;;;18.10;1.00;;;;;;5049064;28;20229;-79
2023/08/08 20:25:42;;;;;;;4.80;1.87;;;18.10;1.00;;;;;;5054688;28;20210;-78
2023/08/08 20:38:53;;;;;;;2.83;2.07;;;18.00;1.00;;;;;;5050966;28;20509;-81
2023/08/08 20:41:30;;;;;;;2.80;1.60;;;18.00;1.00;;;;;;5052652;28;20448;-81
2023/08/08 20:44:12;;;;;;;4.90;2.10;;;18.10;1.00;;;;;;5049593;28;20460;-81
2023/08/08 20:50:00;;;;;;;2.90;1.83;;;18.10;1.00;;;;;;5054129;28;20512;-81
2023/08/08 20:59:09;;;;;;;3.03;2.03;;;18.10;1.00;;;;;;5054144;28;20400;-78
2023/08/08 21:01:36;;;;;;;7.63;2.40;;;18.20;1.00;;;;;;5053685;28;20426;-78